createdAt,value
2022-12-18T00:10:05.931Z,10.66
2022-12-18T00:38:59.902Z,10.63
2022-12-18T01:07:58.137Z,10.61
2022-12-18T01:36:54.011Z,10.59
2022-12-18T02:05:56.511Z,10.56
2022-12-18T02:34:56.224Z,10.54
2022-12-18T03:03:48.020Z,10.52
2022-12-18T03:32:30.637Z,10.5
2022-12-18T04:00:58.501Z,10.48
2022-12-18T04:29:28.523Z,10.45
2022-12-18T04:58:02.247Z,10.43
2022-12-18T05:26:26.273Z,10.41
2022-12-18T05:55:05.121Z,10.38
2022-12-18T06:23:40.519Z,10.37
2022-12-18T06:52:16.186Z,10.36
2022-12-18T07:21:08.187Z,10.35
2022-12-18T07:50:04.114Z,10.34
2022-12-18T08:18:51.155Z,10.38
2022-12-18T08:47:30.534Z,10.43
2022-12-18T09:16:13.086Z,10.46
2022-12-18T09:44:55.459Z,10.43
2022-12-18T10:13:37.933Z,10.47
2022-12-18T10:42:30.127Z,10.48
2022-12-18T11:11:15.898Z,10.47
2022-12-18T11:39:54.815Z,10.53
2022-12-18T12:08:42.057Z,10.52
2022-12-18T12:37:17.829Z,10.8
2022-12-18T13:05:54.571Z,10.82
2022-12-18T13:34:30.807Z,10.86
2022-12-18T14:02:52.297Z,10.83
2022-12-18T14:31:18.810Z,10.84
2022-12-18T14:59:53.830Z,10.8
2022-12-18T15:28:26.458Z,10.78
2022-12-18T15:56:59.052Z,10.74
2022-12-18T16:25:30.411Z,10.73
2022-12-18T16:54:18.990Z,10.72
2022-12-18T17:22:32.330Z,10.69
2022-12-18T17:51:05.940Z,10.78
2022-12-18T18:19:42.746Z,10.73
2022-12-18T18:48:03.467Z,10.7
2022-12-18T19:16:38.518Z,10.67
2022-12-18T19:45:09.606Z,10.64
2022-12-18T20:13:47.578Z,10.63
2022-12-18T20:42:20.832Z,10.6
2022-12-18T21:10:57.513Z,10.58
2022-12-18T21:39:28.246Z,10.58
2022-12-18T22:08:09.948Z,10.55
2022-12-18T22:36:41.365Z,10.54
2022-12-18T23:05:19.598Z,10.53
2022-12-18T23:34:03.716Z,10.52
